Accueil
METAR-TAF:

METAR-TAF

Aéroports :

Laupheim, Allemagne

latitude: 48-13N, longitude: 009-55E, altitude: 538 m

Observation

Le bulletin a été fait il y a 29 minutes, à 10:20 UTC
Vent 2 kt de direction variable
Température 17°C
Humidité 48%
Pression 1020 hPa
Visibilité 10 km ou plus
Quelques nuages à une hauteur de 28000 ft

METAR: ETHL 161020Z VRB02KT 9999 FEW280 17/06 Q1020 BLU+BLU+

Heure: 12:49 (10:49 UTC)

Prévision

Le bulletin a été fait il y a 32 minutes, à 10:17 UTC
Prévision valable du 16 à 11 UTC au 16 à 20 UTC
Vent 3 kt de direction variable
Visibilité 10 km ou plus
Nuages épars à une hauteur de 28000 ft

TAF: ETHL 161017Z 1611/1620 VRB03KT 9999 NSW SCT280

Observations et prévisions météorologiques de plus de 4000 aéroports (messages METAR et TAF).

Les stations disponibles sont représentées par des disques jaunes et rouges sur la carte.

Passer la souris dessus pour voir le nom de la station.

Cliquer dessus pour voir les observations et prévisions météorologiques.

Pour changer de carte: cliquez sur les boutons verts avec une croix noire pour zoomer, sur le bouton vert avec un tiret pour effectuer un zoom arrière, ou sur les flèches vertes pour les cartes adjacentes.


METAR-TAF: